METAR Data
IDs: Format: Raw Decoded Include TAF

Data at: 1524 UTC 15 Oct 2018

KABY 151453Z 18010KT 10SM BKN017 28/22 A3016 RMK AO2 SLP213 T02830222 51009